Aviation Digital Data Service (ADDS)

Output produced by METARs form (1516 UTC 20 March 2019)
found at http://www.aviationweather.gov/metar/data/
 
Forecast for: OEKM (KHAMIS MUSHAIT A, SA)
Text: TAF OEKM 201100Z 2012/2118 22008G18KT 8000 SCT020
Forecast period: 1200 UTC 20 March 2019 to 1800 UTC 21 March 2019
Forecast type: FROM: standard forecast or significant change
Winds: from the SW (220 degrees) at 9 MPH (8 knots; 4.1 m/s)
gusting to 21 MPH (18 knots; 9.3 m/s)
Visibility: 5 miles (8 km)
Ceiling: at least 12,000 feet AGL
Clouds: scattered clouds at 2000 feet AGL
Weather: no significant weather forecast for this period
Text: PROB30
Forecast period: 1200 to 1600 UTC 20 March 2019
Forecast type: TEMPORARY: The following changes expected for less than half the time period
Visibility: 2.49 miles (4.01 km)
Ceiling: unknown
Clouds: missing
Weather: DU BLDU  (widespread dust, blowing dust)